Time;durP1;ratioP1;P1;durP2;ratioP2;P2;SDS_P1;SDS_P2;PMS_P1;PMS_P2;Temp;Humidity;BMP_temperature;BMP_pressure;BME280_temperature;BME280_humidity;BME280_pressure;Samples;Min_cycle;Max_cycle;Signal;HPM_P1;HPM_P2
2021/08/23 00:01:18;;;;;;;2.23;1.80;;;19.30;99.90;;;;;;5071430;28;20469;-83
2021/08/23 00:03:47;;;;;;;2.33;1.60;;;19.30;99.90;;;;;;5073695;28;20470;-83
2021/08/23 00:06:15;;;;;;;1.70;1.40;;;19.30;99.90;;;;;;5077485;28;20857;-83
2021/08/23 00:08:43;;;;;;;1.70;1.60;;;19.40;99.90;;;;;;5070589;28;20870;-81
2021/08/23 00:11:11;;;;;;;1.50;1.40;;;19.40;99.90;;;;;;5068947;28;20903;-83
2021/08/23 00:13:39;;;;;;;1.70;1.40;;;19.30;99.90;;;;;;5053087;28;20841;-82
2021/08/23 00:16:09;;;;;;;2.37;1.60;;;19.40;99.90;;;;;;5070883;28;20526;-82
2021/08/23 00:18:37;;;;;;;1.90;1.40;;;19.40;99.90;;;;;;5075646;28;20457;-83
2021/08/23 00:21:11;;;;;;;2.07;1.20;;;19.40;99.90;;;;;;5058585;28;20857;-83
2021/08/23 00:23:49;;;;;;;2.60;1.67;;;19.40;95.70;;;;;;5077336;28;20539;-83
2021/08/23 00:26:22;;;;;;;2.10;1.77;;;19.40;99.90;;;;;;5079498;28;20545;-83
2021/08/23 00:28:51;;;;;;;1.60;1.50;;;19.50;99.90;;;;;;5070516;28;20454;-83
2021/08/23 00:31:20;;;;;;;2.53;1.80;;;19.50;99.90;;;;;;5069241;28;20871;-82
2021/08/23 00:33:48;;;;;;;5.37;1.90;;;19.50;99.90;;;;;;5076107;28;20473;-83
2021/08/23 00:36:16;;;;;;;1.70;1.60;;;19.40;99.90;;;;;;5073212;28;20948;-83
2021/08/23 00:38:44;;;;;;;2.23;1.50;;;19.30;99.90;;;;;;5069148;28;20476;-83
2021/08/23 00:41:13;;;;;;;1.57;1.20;;;19.30;99.90;;;;;;5082063;28;20457;-82
2021/08/23 00:43:41;;;;;;;1.90;1.50;;;19.40;99.90;;;;;;5073077;28;20474;-82
2021/08/23 00:46:09;;;;;;;1.63;1.10;;;19.30;99.90;;;;;;5088790;28;20442;-82
2021/08/23 00:48:38;;;;;;;4.70;1.60;;;19.30;99.90;;;;;;5079924;28;20531;-82
2021/08/23 00:51:08;;;;;;;1.40;1.30;;;19.20;99.90;;;;;;5070320;28;21128;-82
2021/08/23 00:53:36;;;;;;;2.57;1.60;;;19.10;99.90;;;;;;5075234;28;20469;-82
2021/08/23 00:56:04;;;;;;;1.57;1.47;;;19.20;99.90;;;;;;5069305;28;20446;-83
2021/08/23 00:58:33;;;;;;;2.03;1.33;;;19.10;99.90;;;;;;5069087;28;20807;-82
2021/08/23 01:01:07;;;;;;;3.03;1.30;;;19.20;99.90;;;;;;5068824;28;20445;-80
2021/08/23 01:03:42;;;;;;;1.50;1.40;;;19.20;99.90;;;;;;5076014;28;20996;-83
2021/08/23 01:06:12;;;;;;;2.07;1.30;;;19.20;99.90;;;;;;5069440;28;20448;-83
2021/08/23 01:08:41;;;;;;;2.60;1.40;;;19.20;99.90;;;;;;5085305;28;20828;-82
2021/08/23 01:11:12;;;;;;;1.87;1.70;;;19.20;99.90;;;;;;5078016;28;20471;-81
2021/08/23 01:13:44;;;;;;;1.60;1.30;;;19.20;99.90;;;;;;5074584;28;20478;-82
2021/08/23 01:16:12;;;;;;;3.07;1.30;;;19.10;99.90;;;;;;5069840;28;20462;-79
2021/08/23 01:18:43;;;;;;;1.60;1.50;;;19.10;99.90;;;;;;5079209;28;21154;-83
2021/08/23 01:21:15;;;;;;;1.50;1.40;;;19.10;99.90;;;;;;5073145;28;21195;-83
2021/08/23 01:23:47;;;;;;;1.93;1.40;;;19.00;99.90;;;;;;5071419;28;20482;-83
2021/08/23 01:26:24;;;;;;;1.83;1.33;;;18.90;99.90;;;;;;5069333;28;20446;-83
2021/08/23 01:29:02;;;;;;;1.40;1.30;;;18.90;99.90;;;;;;5051372;28;20910;-83
2021/08/23 01:31:41;;;;;;;1.43;1.33;;;18.90;99.90;;;;;;5077196;28;20482;-83
2021/08/23 01:34:11;;;;;;;1.90;1.60;;;18.90;99.90;;;;;;5081201;28;20542;-81
2021/08/23 01:36:40;;;;;;;2.40;1.10;;;18.90;99.90;;;;;;5069391;28;20446;-81
2021/08/23 01:39:08;;;;;;;1.40;1.30;;;19.00;99.90;;;;;;5072414;28;20450;-79
2021/08/23 01:41:36;;;;;;;1.30;1.20;;;19.00;99.90;;;;;;5071371;28;20886;-81
2021/08/23 01:44:04;;;;;;;1.43;1.33;;;18.90;99.90;;;;;;5073627;28;20539;-82
2021/08/23 01:46:33;;;;;;;1.73;1.40;;;19.00;99.90;;;;;;5080578;28;20506;-81
2021/08/23 01:49:05;;;;;;;2.07;1.30;;;19.00;99.90;;;;;;5074713;28;20441;-81
2021/08/23 01:51:35;;;;;;;1.70;1.40;;;19.10;99.90;;;;;;5081145;28;20543;-81
2021/08/23 01:54:04;;;;;;;1.57;1.47;;;19.10;99.90;;;;;;5075884;28;20482;-83
2021/08/23 01:56:33;;;;;;;1.63;1.40;;;19.10;99.90;;;;;;5070389;28;20438;-82
2021/08/23 01:59:02;;;;;;;1.80;1.50;;;19.00;99.90;;;;;;5070940;28;20454;-83
2021/08/23 02:01:31;;;;;;;3.83;1.40;;;19.00;99.90;;;;;;5052696;28;20454;-82
2021/08/23 02:03:59;;;;;;;1.40;1.20;;;19.00;99.90;;;;;;5068257;28;20466;-82
2021/08/23 02:06:28;;;;;;;1.43;1.20;;;19.00;99.90;;;;;;5073300;28;20468;-82
2021/08/23 02:08:57;;;;;;;1.40;1.30;;;19.10;99.90;;;;;;5075570;28;20890;-81
2021/08/23 02:11:25;;;;;;;2.23;1.40;;;19.10;99.90;;;;;;5072779;28;20471;-82
2021/08/23 02:13:54;;;;;;;2.73;1.60;;;19.00;99.90;;;;;;5076507;28;20527;-82
2021/08/23 02:16:23;;;;;;;1.67;1.30;;;18.90;99.90;;;;;;5075379;28;20564;-79
2021/08/23 02:18:51;;;;;;;2.37;1.37;;;18.90;99.90;;;;;;5085136;28;20540;-82
2021/08/23 02:21:21;;;;;;;1.50;1.40;;;18.90;99.90;;;;;;5084325;28;20441;-81
2021/08/23 02:23:50;;;;;;;3.73;1.70;;;18.80;99.90;;;;;;5072666;28;20485;-82
2021/08/23 02:26:19;;;;;;;1.40;1.30;;;18.80;99.90;;;;;;5072912;28;20446;-82
2021/08/23 02:28:47;;;;;;;1.50;1.40;;;18.80;99.90;;;;;;5071387;28;20516;-80
2021/08/23 02:31:16;;;;;;;1.83;1.00;;;18.70;99.90;;;;;;5079399;28;20835;-81
2021/08/23 02:33:44;;;;;;;1.40;1.30;;;18.70;1.00;;;;;;5054882;28;20552;-81
2021/08/23 02:36:12;;;;;;;1.57;1.20;;;18.70;1.00;;;;;;5088446;28;20446;-81
2021/08/23 02:38:40;;;;;;;2.00;1.80;;;18.80;1.00;;;;;;5085557;28;20438;-81
2021/08/23 02:41:08;;;;;;;1.63;1.27;;;18.70;1.00;;;;;;5071630;28;20522;-81
2021/08/23 02:43:38;;;;;;;1.53;1.30;;;18.70;1.00;;;;;;5075916;28;20484;-81
2021/08/23 02:46:06;;;;;;;1.50;1.40;;;18.70;1.00;;;;;;5075292;28;20526;-81
2021/08/23 02:48:34;;;;;;;1.30;1.17;;;18.70;1.00;;;;;;5074918;28;20458;-82
2021/08/23 02:51:02;;;;;;;2.00;1.57;;;18.60;1.00;;;;;;5058280;28;20460;-82
2021/08/23 02:53:30;;;;;;;1.67;1.33;;;18.60;1.00;;;;;;5074055;28;20474;-82
2021/08/23 02:55:59;;;;;;;1.23;1.10;;;18.50;1.00;;;;;;5072352;28;20470;-82
2021/08/23 02:58:27;;;;;;;1.93;1.33;;;18.50;1.00;;;;;;5052603;28;20450;-82
2021/08/23 03:00:56;;;;;;;2.13;1.73;;;18.40;1.00;;;;;;5071322;28;20443;-83
2021/08/23 03:03:25;;;;;;;1.30;1.20;;;18.50;1.00;;;;;;5074958;28;20467;-83
2021/08/23 03:05:53;;;;;;;1.53;1.40;;;18.60;1.00;;;;;;5071373;28;20455;-81
2021/08/23 03:08:21;;;;;;;3.10;1.50;;;18.50;1.00;;;;;;5074376;28;20489;-83
2021/08/23 03:10:51;;;;;;;2.73;1.33;;;18.50;1.00;;;;;;5060877;28;20442;-82
2021/08/23 03:13:19;;;;;;;2.27;1.67;;;18.50;96.30;;;;;;5067881;28;20465;-82
2021/08/23 03:15:47;;;;;;;1.50;1.40;;;18.40;99.90;;;;;;5087018;28;20816;-82
2021/08/23 03:18:17;;;;;;;1.70;1.50;;;18.40;99.90;;;;;;5073817;28;20446;-82
2021/08/23 03:20:45;;;;;;;2.33;1.60;;;18.30;99.90;;;;;;5071840;28;20458;-82
2021/08/23 03:23:13;;;;;;;3.33;1.50;;;18.30;1.00;;;;;;5075639;28;20534;-81
2021/08/23 03:25:41;;;;;;;2.10;1.40;;;18.20;1.00;;;;;;5085293;28;20474;-81
2021/08/23 03:28:09;;;;;;;1.87;1.30;;;18.10;1.00;;;;;;5080163;28;20523;-82
2021/08/23 03:30:37;;;;;;;1.50;1.40;;;18.20;1.00;;;;;;5073773;28;20468;-82
2021/08/23 03:33:05;;;;;;;2.10;1.13;;;18.40;99.90;;;;;;5073022;28;20485;-82
2021/08/23 03:35:35;;;;;;;2.40;1.53;;;18.50;80.70;;;;;;5072889;28;20461;-81
2021/08/23 03:38:03;;;;;;;1.80;1.20;;;18.50;99.90;;;;;;5068195;28;20454;-82
2021/08/23 03:40:31;;;;;;;2.50;1.50;;;18.60;92.10;;;;;;5082465;28;20468;-80
2021/08/23 03:43:00;;;;;;;1.80;1.43;;;18.40;88.30;;;;;;5075293;28;20486;-81
2021/08/23 03:45:28;;;;;;;1.70;1.40;;;18.40;99.90;;;;;;5071187;28;20450;-82
2021/08/23 03:47:56;;;;;;;1.30;1.20;;;18.40;99.90;;;;;;5074047;28;21177;-81
2021/08/23 03:50:24;;;;;;;2.50;1.47;;;18.30;99.90;;;;;;5076605;28;20440;-79
2021/08/23 03:52:54;;;;;;;3.50;1.50;;;18.20;1.00;;;;;;5073435;28;21000;-79
2021/08/23 03:55:23;;;;;;;1.43;1.33;;;18.40;99.90;;;;;;5076290;28;20979;-82
2021/08/23 03:57:51;;;;;;;3.00;1.40;;;18.60;1.00;;;;;;5088071;28;20544;-81
2021/08/23 04:00:20;;;;;;;1.60;1.30;;;18.70;1.00;;;;;;5078282;28;20462;-82
2021/08/23 04:02:48;;;;;;;5.20;1.63;;;18.70;1.00;;;;;;5072037;28;20739;-83
2021/08/23 04:05:16;;;;;;;2.83;1.27;;;18.70;1.00;;;;;;5060955;28;20449;-81
2021/08/23 04:07:44;;;;;;;2.50;1.43;;;18.60;1.00;;;;;;5084511;28;20443;-83
2021/08/23 04:10:14;;;;;;;2.33;1.50;;;18.60;1.00;;;;;;5067289;28;20976;-82
2021/08/23 04:12:42;;;;;;;7.73;1.50;;;18.50;1.00;;;;;;5078545;28;20507;-83
2021/08/23 04:15:11;;;;;;;1.67;1.30;;;18.60;10.80;;;;;;5072488;28;21017;-83
2021/08/23 04:17:39;;;;;;;4.93;1.40;;;18.60;1.00;;;;;;5071185;28;20465;-81
2021/08/23 04:20:09;;;;;;;1.83;1.20;;;18.70;1.00;;;;;;5054884;28;20978;-82
2021/08/23 04:22:37;;;;;;;5.13;1.70;;;18.70;1.00;;;;;;5085714;28;20461;-83
2021/08/23 04:25:06;;;;;;;2.00;1.20;;;18.60;1.00;;;;;;5077127;28;20508;-82
2021/08/23 04:27:35;;;;;;;3.27;1.53;;;18.60;1.00;;;;;;5081249;28;20444;-81
2021/08/23 04:30:04;;;;;;;1.77;1.50;;;18.50;1.00;;;;;;5071701;28;20452;-83
2021/08/23 04:32:32;;;;;;;2.40;1.50;;;18.40;27.10;;;;;;5086227;28;20469;-83
2021/08/23 04:35:00;;;;;;;1.70;1.40;;;18.40;99.90;;;;;;5069531;28;20453;-83
2021/08/23 04:37:28;;;;;;;4.10;1.37;;;18.40;99.90;;;;;;5054484;28;20978;-79
2021/08/23 04:39:56;;;;;;;1.40;1.23;;;18.40;99.90;;;;;;5073983;28;20588;-81
2021/08/23 04:42:24;;;;;;;2.90;1.30;;;18.50;1.00;;;;;;5072823;28;20479;-81
2021/08/23 04:44:54;;;;;;;1.10;1.00;;;18.50;76.20;;;;;;5076322;28;20477;-82
2021/08/23 04:47:22;;;;;;;1.27;1.10;;;18.50;23.30;;;;;;5075605;28;20538;-78
2021/08/23 04:49:50;;;;;;;2.87;1.93;;;18.60;1.00;;;;;;5067872;28;20839;-80
2021/08/23 04:52:18;;;;;;;2.57;1.50;;;18.60;1.00;;;;;;5070651;28;20489;-82
2021/08/23 04:54:46;;;;;;;2.40;1.40;;;18.60;1.00;;;;;;5072392;28;20561;-82
2021/08/23 04:57:16;;;;;;;3.17;1.37;;;18.70;1.00;;;;;;5084936;28;20461;-82
2021/08/23 04:59:44;;;;;;;1.40;1.30;;;18.70;1.00;;;;;;5077987;28;20472;-81
2021/08/23 05:02:13;;;;;;;2.30;1.30;;;18.60;1.00;;;;;;5077578;28;20481;-80
2021/08/23 05:04:42;;;;;;;2.60;1.40;;;18.70;1.00;;;;;;5089385;28;20492;-80
2021/08/23 05:07:10;;;;;;;1.67;1.40;;;18.70;1.00;;;;;;5077511;28;20972;-80
2021/08/23 05:09:38;;;;;;;1.10;1.03;;;18.60;1.00;;;;;;5068977;28;20454;-80
2021/08/23 05:12:06;;;;;;;3.80;1.40;;;18.60;1.00;;;;;;5072397;28;20812;-81
2021/08/23 05:14:35;;;;;;;2.20;1.30;;;18.70;1.00;;;;;;5089484;28;20466;-80
2021/08/23 05:17:03;;;;;;;1.20;1.10;;;18.70;1.00;;;;;;5087310;28;20979;-81
2021/08/23 05:19:32;;;;;;;1.73;1.40;;;18.60;1.00;;;;;;5087222;28;20499;-81
2021/08/23 05:22:00;;;;;;;1.70;1.40;;;18.60;1.00;;;;;;5090484;28;20453;-80
2021/08/23 05:24:29;;;;;;;3.47;1.40;;;18.70;1.00;;;;;;5082949;28;20469;-79
2021/08/23 05:26:57;;;;;;;1.60;1.40;;;18.60;1.00;;;;;;5083567;28;20828;-79
2021/08/23 05:29:25;;;;;;;2.23;1.60;;;18.70;1.00;;;;;;5071248;28;20962;-81
2021/08/23 05:31:53;;;;;;;1.33;1.23;;;18.80;1.00;;;;;;5084666;28;20457;-79
2021/08/23 05:34:21;;;;;;;1.53;1.40;;;18.70;1.00;;;;;;5077457;28;20571;-82
2021/08/23 05:36:51;;;;;;;4.80;1.73;;;18.80;1.00;;;;;;5078720;28;20494;-81
2021/08/23 05:39:19;;;;;;;1.67;1.57;;;18.70;1.00;;;;;;5082734;28;20446;-80
2021/08/23 05:41:47;;;;;;;1.70;1.20;;;18.80;1.00;;;;;;5078472;28;21157;-82
2021/08/23 05:44:15;;;;;;;4.37;1.60;;;18.80;1.00;;;;;;5092429;28;20461;-79
2021/08/23 05:46:43;;;;;;;2.90;1.40;;;18.80;1.00;;;;;;5076740;28;20450;-83
2021/08/23 05:49:11;;;;;;;3.20;1.27;;;18.80;1.00;;;;;;5076721;28;20504;-80
2021/08/23 05:51:39;;;;;;;1.53;1.40;;;18.70;1.00;;;;;;5077834;28;20453;-82
2021/08/23 05:54:09;;;;;;;1.53;1.43;;;18.70;1.00;;;;;;5075604;28;20466;-81
2021/08/23 05:56:40;;;;;;;2.03;1.23;;;18.70;91.40;;;;;;5094288;28;20524;-81
2021/08/23 05:59:09;;;;;;;2.50;1.47;;;18.80;18.20;;;;;;5092235;28;20804;-81
2021/08/23 06:01:37;;;;;;;4.57;1.50;;;18.90;1.00;;;;;;5082533;28;20458;-81
2021/08/23 06:04:05;;;;;;;2.10;1.40;;;18.90;1.00;;;;;;5079643;28;20470;-82
2021/08/23 06:06:34;;;;;;;1.97;1.30;;;19.00;1.00;;;;;;5081421;28;20481;-79
2021/08/23 06:09:02;;;;;;;1.67;1.50;;;18.90;1.00;;;;;;5075841;28;20871;-80
2021/08/23 06:11:31;;;;;;;3.00;1.57;;;18.90;12.30;;;;;;5075005;28;20460;-79
2021/08/23 06:13:59;;;;;;;1.90;1.27;;;18.80;99.90;;;;;;5079152;28;20481;-80
2021/08/23 06:16:27;;;;;;;4.23;1.70;;;18.70;99.90;;;;;;5087096;28;20450;-81
2021/08/23 06:18:55;;;;;;;2.60;1.53;;;18.80;99.90;;;;;;5076728;28;20454;-80
2021/08/23 06:21:24;;;;;;;2.50;1.30;;;18.80;99.90;;;;;;5086937;28;20445;-81
2021/08/23 06:23:52;;;;;;;1.60;1.37;;;18.90;1.00;;;;;;5083815;28;20543;-81
2021/08/23 06:26:20;;;;;;;2.07;1.87;;;19.00;1.00;;;;;;5078125;28;20445;-80
2021/08/23 06:28:50;;;;;;;2.87;1.30;;;19.10;1.00;;;;;;5076937;28;20488;-81
2021/08/23 06:31:18;;;;;;;2.70;1.30;;;19.10;99.90;;;;;;5062685;28;20450;-81
2021/08/23 06:33:46;;;;;;;2.50;1.37;;;19.20;99.90;;;;;;5090446;28;20477;-81
2021/08/23 06:36:15;;;;;;;1.40;1.30;;;19.20;1.00;;;;;;5064904;28;20450;-83
2021/08/23 06:38:43;;;;;;;2.30;1.50;;;19.20;99.90;;;;;;5062796;28;20454;-82
2021/08/23 06:41:16;;;;;;;1.47;1.27;;;19.20;99.90;;;;;;5083995;28;20457;-80
2021/08/23 06:43:45;;;;;;;4.93;1.40;;;19.20;99.90;;;;;;5082291;28;20463;-82
2021/08/23 06:46:15;;;;;;;1.47;1.37;;;19.30;99.90;;;;;;5087700;28;20450;-81
2021/08/23 06:48:43;;;;;;;2.90;1.60;;;19.40;99.90;;;;;;5080865;28;20465;-83
2021/08/23 06:51:12;;;;;;;3.53;1.37;;;19.50;99.90;;;;;;5059898;28;20454;-80
2021/08/23 06:53:40;;;;;;;4.20;1.70;;;19.50;99.90;;;;;;5074352;28;21011;-81
2021/08/23 06:56:08;;;;;;;4.07;1.40;;;19.60;99.90;;;;;;5073535;28;20542;-85
2021/08/23 06:58:36;;;;;;;2.17;1.50;;;19.60;99.90;;;;;;5072828;28;20458;-84
2021/08/23 07:01:05;;;;;;;3.00;1.70;;;19.60;99.90;;;;;;5078222;28;20451;-83
2021/08/23 07:03:35;;;;;;;1.73;1.30;;;19.60;99.90;;;;;;5074514;28;20553;-82
2021/08/23 07:06:04;;;;;;;2.10;1.40;;;19.70;99.90;;;;;;5077049;28;20455;-80
2021/08/23 07:08:44;;;;;;;1.50;1.20;;;19.70;99.90;;;;;;5080077;28;20450;-81
2021/08/23 07:11:13;;;;;;;5.73;1.50;;;19.80;99.90;;;;;;5070881;28;20454;-82
2021/08/23 07:13:42;;;;;;;1.57;1.40;;;19.80;99.90;;;;;;5080975;28;20482;-82
2021/08/23 07:16:10;;;;;;;3.10;1.70;;;19.70;66.50;;;;;;5072190;28;20508;-83
2021/08/23 07:18:40;;;;;;;2.57;1.40;;;19.70;99.90;;;;;;5074440;28;20439;-83
2021/08/23 07:21:08;;;;;;;4.20;1.70;;;19.80;47.50;;;;;;5073219;28;20462;-81
2021/08/23 07:23:36;;;;;;;2.00;1.30;;;19.80;6.50;;;;;;5072116;28;20536;-82
2021/08/23 07:26:04;;;;;;;2.00;1.43;;;19.80;8.50;;;;;;5079250;28;20500;-82
2021/08/23 07:28:32;;;;;;;1.73;1.40;;;19.70;11.50;;;;;;5089459;28;20473;-81
2021/08/23 07:31:01;;;;;;;1.43;1.33;;;19.80;61.10;;;;;;5074799;28;20445;-83
2021/08/23 07:33:29;;;;;;;1.23;1.13;;;19.70;99.90;;;;;;5077172;28;20466;-81
2021/08/23 07:35:58;;;;;;;3.03;1.40;;;19.80;99.90;;;;;;5077780;28;20510;-83
2021/08/23 07:38:27;;;;;;;2.07;1.40;;;19.80;56.40;;;;;;5061361;28;20565;-82
2021/08/23 07:40:55;;;;;;;2.70;1.40;;;19.90;99.90;;;;;;5070861;28;20802;-83
2021/08/23 07:43:23;;;;;;;2.40;1.50;;;19.90;99.90;;;;;;5055127;28;20847;-82
2021/08/23 07:45:51;;;;;;;2.20;1.70;;;19.90;99.90;;;;;;5073131;28;20953;-82
2021/08/23 07:48:20;;;;;;;1.80;1.70;;;19.90;95.60;;;;;;5085971;28;20492;-82
2021/08/23 07:50:48;;;;;;;2.10;1.40;;;19.90;30.70;;;;;;5071782;28;20660;-82
2021/08/23 07:53:17;;;;;;;1.53;1.33;;;20.00;22.00;;;;;;5077330;28;20475;-80
2021/08/23 07:55:46;;;;;;;3.00;1.60;;;20.10;65.50;;;;;;5071945;28;20967;-81
2021/08/23 07:58:14;;;;;;;2.73;1.57;;;20.20;15.80;;;;;;5079949;28;20442;-82
2021/08/23 08:00:42;;;;;;;1.50;1.20;;;20.30;1.00;;;;;;5090964;28;20454;-82
2021/08/23 08:03:10;;;;;;;1.40;1.30;;;20.40;1.00;;;;;;5078687;28;20569;-81
2021/08/23 08:05:38;;;;;;;1.40;1.10;;;20.50;92.80;;;;;;5079299;28;20446;-82
2021/08/23 08:08:08;;;;;;;1.87;1.77;;;20.60;10.50;;;;;;5085199;28;20449;-81
2021/08/23 08:10:38;;;;;;;3.80;1.53;;;20.60;1.00;;;;;;5070913;28;20511;-82
2021/08/23 08:13:07;;;;;;;1.63;1.53;;;20.60;1.00;;;;;;5073308;28;20474;-81
2021/08/23 08:15:36;;;;;;;2.30;1.60;;;20.60;1.00;;;;;;5089530;28;20473;-81
2021/08/23 08:18:05;;;;;;;1.63;1.47;;;20.60;1.00;;;;;;5078605;28;20466;-81
2021/08/23 08:20:33;;;;;;;2.67;1.47;;;20.70;1.00;;;;;;5089485;28;20450;-82
2021/08/23 08:23:02;;;;;;;2.37;1.10;;;20.80;1.00;;;;;;5085549;28;20858;-82
2021/08/23 08:25:31;;;;;;;4.43;1.47;;;20.80;1.00;;;;;;5084427;28;20450;-82
2021/08/23 08:28:00;;;;;;;2.47;1.70;;;20.90;1.00;;;;;;5078951;28;20989;-82
2021/08/23 08:30:28;;;;;;;2.23;1.47;;;20.90;1.00;;;;;;5073221;28;20454;-80
2021/08/23 08:32:56;;;;;;;1.67;1.57;;;20.90;1.00;;;;;;5075985;28;20474;-83
2021/08/23 08:35:25;;;;;;;2.97;1.67;;;21.00;1.00;;;;;;5080123;28;20528;-81
2021/08/23 08:37:53;;;;;;;3.70;1.73;;;20.90;1.00;;;;;;5080937;28;20515;-83
2021/08/23 08:40:23;;;;;;;2.40;1.57;;;20.90;1.00;;;;;;5070352;28;20507;-82
2021/08/23 08:42:51;;;;;;;1.63;1.40;;;20.90;1.00;;;;;;5080773;28;20876;-82
2021/08/23 08:45:21;;;;;;;1.60;1.50;;;20.90;1.00;;;;;;5081785;28;20446;-82
2021/08/23 08:47:50;;;;;;;3.23;2.13;;;20.90;1.00;;;;;;5067192;28;20503;-81
2021/08/23 08:50:19;;;;;;;2.50;1.33;;;21.00;1.00;;;;;;5070050;28;20449;-82
2021/08/23 08:52:47;;;;;;;2.03;1.30;;;21.00;1.00;;;;;;5088385;28;20461;-82
2021/08/23 08:55:16;;;;;;;1.40;1.30;;;21.00;1.00;;;;;;5078554;28;20531;-81
2021/08/23 08:57:45;;;;;;;2.37;1.50;;;21.00;1.00;;;;;;5076052;28;20457;-80
2021/08/23 09:00:14;;;;;;;1.70;1.20;;;21.10;1.00;;;;;;5051696;28;20449;-82
2021/08/23 09:02:56;;;;;;;2.10;1.60;;;21.00;1.00;;;;;;5088345;28;20531;-82
2021/08/23 09:05:25;;;;;;;2.07;1.00;;;21.10;1.00;;;;;;5070987;28;20443;-83
2021/08/23 09:07:53;;;;;;;2.17;1.50;;;21.20;1.00;;;;;;5080312;28;20455;-81
2021/08/23 09:10:24;;;;;;;1.40;1.30;;;21.30;1.00;;;;;;5070564;28;20442;-82
2021/08/23 09:13:01;;;;;;;2.90;1.73;;;21.30;1.00;;;;;;5073173;28;20483;-81
2021/08/23 09:15:29;;;;;;;1.57;1.47;;;21.40;1.00;;;;;;5073713;28;20483;-82
2021/08/23 09:18:04;;;;;;;5.53;1.70;;;21.30;1.00;;;;;;5073646;28;20456;-82
2021/08/23 09:20:33;;;;;;;4.23;1.70;;;21.30;1.00;;;;;;5079543;28;20463;-82
2021/08/23 09:23:10;;;;;;;2.90;1.93;;;21.30;1.00;;;;;;5081262;28;21015;-81
2021/08/23 09:25:40;;;;;;;2.43;1.80;;;21.10;66.80;;;;;;5075299;28;20451;-82
2021/08/23 09:28:11;;;;;;;3.13;1.80;;;21.10;99.90;;;;;;5072078;28;20518;-82
2021/08/23 09:30:40;;;;;;;1.77;1.67;;;21.00;99.90;;;;;;5070816;28;20453;-82
2021/08/23 09:33:10;;;;;;;2.87;2.43;;;20.90;99.90;;;;;;5083656;28;20475;-82
2021/08/23 09:35:39;;;;;;;1.67;1.43;;;20.80;1.00;;;;;;5072674;28;20471;-82
2021/08/23 09:38:09;;;;;;;1.70;1.60;;;20.80;91.70;;;;;;5079141;28;20462;-81
2021/08/23 09:40:38;;;;;;;3.47;1.70;;;20.80;99.90;;;;;;5070596;28;20463;-82
2021/08/23 09:43:11;;;;;;;3.43;1.70;;;20.80;99.90;;;;;;5074844;28;20825;-82
2021/08/23 09:45:44;;;;;;;3.80;2.23;;;20.80;99.90;;;;;;5073808;28;20761;-82
2021/08/23 09:48:14;;;;;;;1.80;1.60;;;20.70;1.00;;;;;;5075585;28;20545;-82
2021/08/23 09:50:44;;;;;;;2.80;1.80;;;20.70;1.00;;;;;;5074719;28;20972;-81
2021/08/23 09:53:13;;;;;;;1.80;1.70;;;20.80;1.00;;;;;;5080094;28;21003;-82
2021/08/23 09:55:43;;;;;;;2.27;1.73;;;20.80;1.00;;;;;;5084874;28;20473;-82
2021/08/23 09:58:13;;;;;;;2.23;1.77;;;20.90;25.30;;;;;;5078158;28;20446;-81
2021/08/23 10:00:42;;;;;;;1.57;1.27;;;20.90;99.90;;;;;;5083695;28;20466;-81
2021/08/23 10:03:17;;;;;;;1.97;1.40;;;20.90;99.90;;;;;;5084974;28;20500;-81
2021/08/23 10:05:47;;;;;;;2.50;1.37;;;20.90;1.00;;;;;;5072233;28;20442;-82
2021/08/23 10:08:17;;;;;;;2.10;1.50;;;21.00;27.60;;;;;;5076700;28;20455;-81
2021/08/23 10:10:46;;;;;;;3.00;1.70;;;21.00;60.30;;;;;;5070390;28;20462;-81
2021/08/23 10:13:14;;;;;;;2.90;1.30;;;21.10;99.90;;;;;;5074454;28;20463;-81
2021/08/23 10:15:44;;;;;;;3.63;1.60;;;21.00;1.00;;;;;;5083834;28;20471;-82
2021/08/23 10:18:12;;;;;;;1.70;1.33;;;21.00;1.00;;;;;;5073214;28;20530;-82
2021/08/23 10:20:42;;;;;;;2.10;1.70;;;21.00;99.90;;;;;;5076297;28;20871;-81
2021/08/23 10:23:10;;;;;;;4.33;1.50;;;21.10;99.90;;;;;;5074839;28;20483;-81
2021/08/23 10:25:38;;;;;;;2.50;1.90;;;21.10;99.90;;;;;;5081340;28;20461;-82
2021/08/23 10:28:09;;;;;;;1.70;1.60;;;21.10;1.00;;;;;;5075284;28;20864;-82
2021/08/23 10:30:38;;;;;;;2.73;1.60;;;21.10;99.90;;;;;;5073971;28;20447;-80
2021/08/23 10:33:14;;;;;;;1.60;1.40;;;21.20;99.90;;;;;;5064060;28;20938;-81
2021/08/23 10:35:50;;;;;;;1.87;1.77;;;21.20;99.90;;;;;;5074677;28;20489;-81
2021/08/23 10:38:20;;;;;;;2.90;1.60;;;21.20;99.90;;;;;;5074467;28;20454;-83
2021/08/23 10:40:49;;;;;;;1.77;1.30;;;21.30;1.00;;;;;;5074081;28;20448;-83
2021/08/23 10:43:19;;;;;;;136.27;63.30;;;21.30;99.90;;;;;;5072159;28;20484;-84
2021/08/23 10:45:49;;;;;;;14.20;7.97;;;21.40;99.90;;;;;;5079803;28;20464;-83
2021/08/23 10:48:19;;;;;;;3.70;1.80;;;21.50;99.90;;;;;;5072014;28;20450;-83
2021/08/23 10:51:00;;;;;;;2.40;1.70;;;21.60;98.70;;;;;;5072189;28;20973;-83
2021/08/23 10:53:36;;;;;;;1.80;1.70;;;21.60;24.20;;;;;;5074589;28;20493;-82
2021/08/23 10:56:14;;;;;;;4.17;1.60;;;21.80;78.40;;;;;;5075970;28;20462;-81
2021/08/23 10:58:44;;;;;;;2.03;1.83;;;21.90;5.40;;;;;;5067452;28;20456;-82
2021/08/23 11:01:23;;;;;;;2.90;1.70;;;21.90;1.00;;;;;;5052759;28;20816;-83
2021/08/23 11:04:05;;;;;;;2.23;1.90;;;21.90;16.60;;;;;;5074004;28;20542;-83
2021/08/23 11:06:49;;;;;;;1.70;1.40;;;22.00;1.00;;;;;;5071297;28;20822;-83
2021/08/23 11:09:17;;;;;;;3.70;1.77;;;22.00;1.00;;;;;;5070459;28;20462;-83
2021/08/23 11:11:45;;;;;;;1.80;1.70;;;22.00;1.00;;;;;;5054249;28;20447;-82
2021/08/23 11:14:18;;;;;;;2.33;1.70;;;22.00;1.00;;;;;;5073524;28;20538;-83
2021/08/23 11:16:52;;;;;;;1.67;1.33;;;22.10;1.00;;;;;;5071518;28;20475;-82
2021/08/23 11:19:21;;;;;;;1.67;1.57;;;22.00;1.00;;;;;;5061071;28;20511;-81
2021/08/23 11:21:57;;;;;;;2.40;1.50;;;22.00;1.00;;;;;;5073810;28;20446;-82
2021/08/23 11:24:28;;;;;;;3.53;1.57;;;21.90;1.00;;;;;;5080903;28;20484;-82
2021/08/23 11:27:00;;;;;;;1.50;1.40;;;21.90;1.00;;;;;;5076120;28;20515;-81
2021/08/23 11:29:28;;;;;;;1.60;1.50;;;21.90;1.00;;;;;;5073835;28;20468;-82
2021/08/23 11:31:57;;;;;;;2.67;1.57;;;22.10;99.90;;;;;;5079586;28;20456;-81
2021/08/23 11:34:26;;;;;;;2.00;1.47;;;22.20;44.30;;;;;;5074590;28;20474;-82
2021/08/23 11:37:01;;;;;;;1.60;1.50;;;22.20;1.00;;;;;;5075316;28;20531;-82
2021/08/23 11:39:30;;;;;;;2.80;1.63;;;22.20;1.00;;;;;;5074645;28;20863;-82
2021/08/23 11:42:00;;;;;;;2.80;1.73;;;22.20;1.00;;;;;;5071973;28;20461;-81
2021/08/23 11:44:28;;;;;;;1.67;1.30;;;22.30;1.00;;;;;;5075230;28;20458;-81
2021/08/23 11:46:58;;;;;;;1.77;1.53;;;22.20;1.00;;;;;;5072454;28;20531;-82
2021/08/23 11:49:31;;;;;;;1.50;1.40;;;22.20;1.00;;;;;;5079054;28;20458;-81
2021/08/23 11:51:59;;;;;;;5.70;1.97;;;22.10;1.00;;;;;;5071512;28;20446;-81
2021/08/23 11:54:28;;;;;;;4.03;1.70;;;22.10;1.00;;;;;;5071443;28;20525;-81
2021/08/23 11:57:07;;;;;;;1.70;1.60;;;22.00;1.00;;;;;;5074216;28;20513;-82
2021/08/23 11:59:35;;;;;;;1.70;1.60;;;22.00;1.00;;;;;;5071824;28;20492;-81
2021/08/23 12:02:10;;;;;;;2.20;1.70;;;22.00;99.90;;;;;;5084843;28;20446;-82
2021/08/23 12:04:39;;;;;;;3.53;2.03;;;21.90;99.90;;;;;;5072328;28;20473;-82
2021/08/23 12:07:07;;;;;;;1.73;1.40;;;21.90;99.90;;;;;;5076263;28;20457;-80
2021/08/23 12:09:35;;;;;;;2.40;1.40;;;21.90;99.90;;;;;;5060571;28;20858;-81
2021/08/23 12:12:06;;;;;;;2.67;1.60;;;21.90;99.90;;;;;;5084119;28;20465;-82
2021/08/23 12:14:34;;;;;;;2.33;1.70;;;21.90;67.00;;;;;;5073016;28;20473;-82
2021/08/23 12:17:07;;;;;;;2.87;2.23;;;21.90;6.00;;;;;;5070697;28;20540;-82
2021/08/23 12:19:35;;;;;;;2.00;1.57;;;21.90;1.00;;;;;;5077895;28;20507;-82
2021/08/23 12:22:04;;;;;;;2.50;1.70;;;21.90;1.00;;;;;;5076263;28;20739;-83
2021/08/23 12:24:33;;;;;;;1.57;1.43;;;21.90;1.00;;;;;;5069456;28;20489;-81
2021/08/23 12:27:03;;;;;;;3.10;1.67;;;21.90;1.00;;;;;;5055131;28;20895;-81
2021/08/23 12:29:36;;;;;;;1.73;1.63;;;21.90;1.00;;;;;;5071983;28;20511;-82
2021/08/23 12:32:08;;;;;;;1.93;1.50;;;22.00;1.00;;;;;;5076702;28;20445;-80
2021/08/23 12:34:40;;;;;;;2.30;1.50;;;22.00;1.00;;;;;;5080852;28;20487;-81
2021/08/23 12:37:09;;;;;;;1.50;1.40;;;22.00;1.00;;;;;;5081110;28;20466;-81
2021/08/23 12:39:37;;;;;;;1.90;1.57;;;22.00;1.00;;;;;;5082898;28;21319;-81
2021/08/23 12:42:08;;;;;;;2.20;1.40;;;22.00;1.00;;;;;;5082194;28;20514;-82
2021/08/23 12:44:38;;;;;;;3.03;1.80;;;21.90;1.00;;;;;;5080840;28;20519;-81
2021/08/23 12:47:07;;;;;;;1.83;1.60;;;22.00;1.00;;;;;;5083176;28;21153;-79
2021/08/23 12:49:35;;;;;;;1.37;1.27;;;22.00;1.00;;;;;;5076593;28;21030;-81
2021/08/23 12:52:04;;;;;;;1.57;1.30;;;22.00;1.00;;;;;;5075216;28;20514;-81
2021/08/23 12:54:32;;;;;;;4.30;1.50;;;21.90;1.00;;;;;;5078005;28;20501;-81
2021/08/23 12:57:00;;;;;;;1.23;1.13;;;21.90;1.00;;;;;;5078873;28;20698;-82
2021/08/23 12:59:28;;;;;;;2.07;1.63;;;22.00;1.00;;;;;;5076448;28;21048;-79
2021/08/23 13:02:16;;;;;;;1.70;1.60;;;21.90;1.00;;;;;;5079302;28;20444;-80
2021/08/23 13:04:45;;;;;;;1.73;1.63;;;21.90;1.00;;;;;;5077476;28;20474;-82